sensor_id;sensor_type;location;lat;lon;timestamp;pressure;altitude;pressure_sealevel;temperature;humidity
79203;BME280;68630;42.748;23.278;2023-10-09T00:01:51;95941.69;;;17.81;51.74
79203;BME280;68630;42.748;23.278;2023-10-09T00:04:20;95978.81;;;18.08;51.45
79203;BME280;68630;42.748;23.278;2023-10-09T00:06:48;95983.50;;;18.06;51.59
79203;BME280;68630;42.748;23.278;2023-10-09T00:09:18;95974.08;;;18.06;51.55
79203;BME280;68630;42.748;23.278;2023-10-09T00:11:54;95978.77;;;17.95;51.77
79203;BME280;68630;42.748;23.278;2023-10-09T00:14:29;95980.28;;;17.94;51.97
79203;BME280;68630;42.748;23.278;2023-10-09T00:17:11;95982.89;;;17.69;52.47
79203;BME280;68630;42.748;23.278;2023-10-09T00:19:41;95982.24;;;17.79;52.11
79203;BME280;68630;42.748;23.278;2023-10-09T00:22:10;95988.30;;;17.77;52.08
79203;BME280;68630;42.748;23.278;2023-10-09T00:24:40;95984.27;;;17.77;52.03
79203;BME280;68630;42.748;23.278;2023-10-09T00:27:09;95991.00;;;17.77;52.00
79203;BME280;68630;42.748;23.278;2023-10-09T00:29:45;95986.22;;;17.63;52.28
79203;BME280;68630;42.748;23.278;2023-10-09T00:34:48;95977.44;;;17.49;52.58
79203;BME280;68630;42.748;23.278;2023-10-09T00:37:19;95966.95;;;17.37;52.86
79203;BME280;68630;42.748;23.278;2023-10-09T00:39:51;95965.34;;;17.10;53.53
79203;BME280;68630;42.748;23.278;2023-10-09T00:42:25;95960.13;;;17.17;53.29
79203;BME280;68630;42.748;23.278;2023-10-09T00:45:04;95977.13;;;16.87;54.05
79203;BME280;68630;42.748;23.278;2023-10-09T00:47:34;95973.98;;;16.96;53.82
79203;BME280;68630;42.748;23.278;2023-10-09T00:50:11;95973.98;;;16.96;53.75
79203;BME280;68630;42.748;23.278;2023-10-09T00:52:40;95969.48;;;17.00;53.62
79203;BME280;68630;42.748;23.278;2023-10-09T00:55:16;95943.30;;;16.58;53.99
79203;BME280;68630;42.748;23.278;2023-10-09T00:57:48;95993.61;;;16.70;54.31
79203;BME280;68630;42.748;23.278;2023-10-09T01:00:27;95999.20;;;16.55;54.75
79203;BME280;68630;42.748;23.278;2023-10-09T01:05:39;96009.27;;;16.35;55.26
79203;BME280;68630;42.748;23.278;2023-10-09T01:08:12;96003.50;;;16.25;55.49
79203;BME280;68630;42.748;23.278;2023-10-09T01:10:46;95996.61;;;16.09;55.71
79203;BME280;68630;42.748;23.278;2023-10-09T01:13:16;95993.63;;;16.12;55.23
79203;BME280;68630;42.748;23.278;2023-10-09T01:15:46;96009.44;;;15.83;55.90
79203;BME280;68630;42.748;23.278;2023-10-09T01:18:15;96017.43;;;15.75;55.75
79203;BME280;68630;42.748;23.278;2023-10-09T01:20:45;96021.30;;;15.90;55.01
79203;BME280;68630;42.748;23.278;2023-10-09T01:23:13;96040.28;;;15.79;55.34
79203;BME280;68630;42.748;23.278;2023-10-09T01:25:42;96032.27;;;15.83;54.87
79203;BME280;68630;42.748;23.278;2023-10-09T01:28:11;96021.03;;;15.70;54.83
79203;BME280;68630;42.748;23.278;2023-10-09T01:30:44;96008.56;;;15.65;54.80
79203;BME280;68630;42.748;23.278;2023-10-09T01:33:14;96003.73;;;15.68;54.62
79203;BME280;68630;42.748;23.278;2023-10-09T01:35:52;96023.65;;;15.66;54.46
79203;BME280;68630;42.748;23.278;2023-10-09T01:38:21;96032.09;;;15.71;54.21
79203;BME280;68630;42.748;23.278;2023-10-09T01:40:52;96040.69;;;15.74;54.03
79203;BME280;68630;42.748;23.278;2023-10-09T01:43:25;96040.16;;;15.57;54.48
79203;BME280;68630;42.748;23.278;2023-10-09T01:46:02;96037.45;;;15.81;53.85
79203;BME280;68630;42.748;23.278;2023-10-09T01:48:42;96045.05;;;15.58;54.42
79203;BME280;68630;42.748;23.278;2023-10-09T01:51:08;96050.63;;;15.36;54.84
79203;BME280;68630;42.748;23.278;2023-10-09T01:53:49;96059.97;;;15.32;54.99
79203;BME280;68630;42.748;23.278;2023-10-09T02:01:45;96072.27;;;15.02;55.91
79203;BME280;68630;42.748;23.278;2023-10-09T02:04:11;96060.31;;;14.76;56.63
79203;BME280;68630;42.748;23.278;2023-10-09T02:06:41;96079.20;;;14.85;56.45
79203;BME280;68630;42.748;23.278;2023-10-09T02:09:09;96079.08;;;14.67;57.09
79203;BME280;68630;42.748;23.278;2023-10-09T02:14:08;96070.11;;;14.72;57.09
79203;BME280;68630;42.748;23.278;2023-10-09T02:16:50;96080.88;;;14.56;57.19
79203;BME280;68630;42.748;23.278;2023-10-09T02:19:38;96083.50;;;14.52;56.97
79203;BME280;68630;42.748;23.278;2023-10-09T02:22:13;96089.99;;;14.40;57.05
79203;BME280;68630;42.748;23.278;2023-10-09T02:24:47;96092.59;;;14.46;56.84
79203;BME280;68630;42.748;23.278;2023-10-09T02:27:24;96098.72;;;14.22;57.27
79203;BME280;68630;42.748;23.278;2023-10-09T02:30:09;96107.59;;;14.23;57.08
79203;BME280;68630;42.748;23.278;2023-10-09T02:32:45;96121.25;;;14.20;56.91
79203;BME280;68630;42.748;23.278;2023-10-09T02:35:14;96117.01;;;14.08;57.26
79203;BME280;68630;42.748;23.278;2023-10-09T02:37:50;96111.92;;;14.04;57.37
79203;BME280;68630;42.748;23.278;2023-10-09T02:40:19;96114.36;;;13.92;57.54
79203;BME280;68630;42.748;23.278;2023-10-09T02:42:51;96111.52;;;13.84;57.76
79203;BME280;68630;42.748;23.278;2023-10-09T02:45:21;96108.84;;;13.84;57.76
79203;BME280;68630;42.748;23.278;2023-10-09T02:47:50;96114.36;;;13.92;57.49
79203;BME280;68630;42.748;23.278;2023-10-09T02:50:18;96107.02;;;13.69;58.02
79203;BME280;68630;42.748;23.278;2023-10-09T02:52:49;96107.90;;;13.79;57.73
79203;BME280;68630;42.748;23.278;2023-10-09T02:55:21;96107.97;;;13.74;57.71
79203;BME280;68630;42.748;23.278;2023-10-09T02:57:51;96108.99;;;13.67;57.93
79203;BME280;68630;42.748;23.278;2023-10-09T03:00:22;96111.86;;;13.60;58.16
79203;BME280;68630;42.748;23.278;2023-10-09T03:02:53;96113.25;;;13.54;58.14
79203;BME280;68630;42.748;23.278;2023-10-09T03:05:21;96127.26;;;13.52;58.08
79203;BME280;68630;42.748;23.278;2023-10-09T03:07:54;96134.84;;;13.62;57.76
79203;BME280;68630;42.748;23.278;2023-10-09T03:10:23;96152.16;;;13.37;58.44
79203;BME280;68630;42.748;23.278;2023-10-09T03:12:52;96148.78;;;13.35;58.44
79203;BME280;68630;42.748;23.278;2023-10-09T03:15:23;96156.67;;;13.37;58.45
79203;BME280;68630;42.748;23.278;2023-10-09T03:17:52;96159.13;;;13.23;58.68
79203;BME280;68630;42.748;23.278;2023-10-09T03:33:19;96150.75;;;13.06;58.50
79203;BME280;68630;42.748;23.278;2023-10-09T03:35:46;96147.88;;;12.98;58.57
79203;BME280;68630;42.748;23.278;2023-10-09T03:38:18;96149.45;;;13.01;58.48
79203;BME280;68630;42.748;23.278;2023-10-09T03:40:46;96162.91;;;13.05;58.26
79203;BME280;68630;42.748;23.278;2023-10-09T03:43:20;96170.55;;;13.04;58.19
79203;BME280;68630;42.748;23.278;2023-10-09T03:45:50;96164.75;;;12.99;58.20
79203;BME280;68630;42.748;23.278;2023-10-09T03:48:22;96190.45;;;12.84;58.61
79203;BME280;68630;42.748;23.278;2023-10-09T03:51:01;96187.66;;;12.53;59.54
79203;BME280;68630;42.748;23.278;2023-10-09T03:53:42;96191.23;;;12.69;58.99
79203;BME280;68630;42.748;23.278;2023-10-09T03:56:15;96193.62;;;12.51;59.42
79203;BME280;68630;42.748;23.278;2023-10-09T03:58:44;96196.64;;;12.58;59.22
79203;BME280;68630;42.748;23.278;2023-10-09T04:01:16;96190.36;;;12.74;58.64
79203;BME280;68630;42.748;23.278;2023-10-09T04:04:00;96193.74;;;12.50;59.23
79203;BME280;68630;42.748;23.278;2023-10-09T04:06:30;96193.38;;;12.54;58.98
79203;BME280;68630;42.748;23.278;2023-10-09T04:09:13;96189.80;;;12.27;59.69
79203;BME280;68630;42.748;23.278;2023-10-09T04:11:49;96193.32;;;12.16;60.03
79203;BME280;68630;42.748;23.278;2023-10-09T04:14:41;96194.31;;;12.15;59.89
79203;BME280;68630;42.748;23.278;2023-10-09T04:17:11;96200.78;;;12.45;58.90
79203;BME280;68630;42.748;23.278;2023-10-09T04:19:58;96201.16;;;12.46;58.76
79203;BME280;68630;42.748;23.278;2023-10-09T04:22:48;96203.22;;;12.48;58.56
79203;BME280;68630;42.748;23.278;2023-10-09T04:25:25;96211.61;;;12.38;59.07
79203;BME280;68630;42.748;23.278;2023-10-09T04:27:58;96215.21;;;12.60;58.43
79203;BME280;68630;42.748;23.278;2023-10-09T04:30:47;96214.86;;;12.53;58.58
79203;BME280;68630;42.748;23.278;2023-10-09T04:33:17;96211.08;;;12.55;58.49
79203;BME280;68630;42.748;23.278;2023-10-09T04:36:07;96151.97;;;12.11;58.70
79203;BME280;68630;42.748;23.278;2023-10-09T04:38:44;96222.39;;;12.42;59.05
79203;BME280;68630;42.748;23.278;2023-10-09T04:41:32;96221.06;;;12.42;58.82
79203;BME280;68630;42.748;23.278;2023-10-09T04:44:12;96218.91;;;12.25;59.19
79203;BME280;68630;42.748;23.278;2023-10-09T04:46:47;96216.26;;;12.30;58.70
79203;BME280;68630;42.748;23.278;2023-10-09T04:49:59;96214.52;;;12.46;57.56
79203;BME280;68630;42.748;23.278;2023-10-09T04:52:44;96215.99;;;12.39;57.55
79203;BME280;68630;42.748;23.278;2023-10-09T04:55:22;96215.70;;;12.53;57.05
79203;BME280;68630;42.748;23.278;2023-10-09T04:58:01;96219.38;;;12.41;57.39
79203;BME280;68630;42.748;23.278;2023-10-09T05:00:36;96224.84;;;12.40;57.26
79203;BME280;68630;42.748;23.278;2023-10-09T05:05:41;96226.53;;;12.46;56.84
79203;BME280;68630;42.748;23.278;2023-10-09T05:08:15;96235.75;;;12.42;56.96
79203;BME280;68630;42.748;23.278;2023-10-09T05:10:59;96236.80;;;12.62;56.36
79203;BME280;68630;42.748;23.278;2023-10-09T05:22:37;96249.59;;;12.42;56.58
79203;BME280;68630;42.748;23.278;2023-10-09T05:25:10;96253.72;;;12.40;56.36
79203;BME280;68630;42.748;23.278;2023-10-09T05:27:39;96261.28;;;12.24;56.78
79203;BME280;68630;42.748;23.278;2023-10-09T05:30:15;96269.88;;;12.33;56.40
79203;BME280;68630;42.748;23.278;2023-10-09T05:33:00;96265.25;;;12.46;55.99
79203;BME280;68630;42.748;23.278;2023-10-09T05:35:47;96268.95;;;12.72;55.22
79203;BME280;68630;42.748;23.278;2023-10-09T05:38:16;96264.25;;;12.59;55.61
79203;BME280;68630;42.748;23.278;2023-10-09T05:40:48;96266.33;;;12.44;56.02
79203;BME280;68630;42.748;23.278;2023-10-09T05:43:22;96282.37;;;12.49;55.92
79203;BME280;68630;42.748;23.278;2023-10-09T05:46:16;96285.14;;;12.42;55.93
79203;BME280;68630;42.748;23.278;2023-10-09T05:48:43;96294.03;;;12.43;55.62
79203;BME280;68630;42.748;23.278;2023-10-09T05:56:32;96299.61;;;12.51;55.56
79203;BME280;68630;42.748;23.278;2023-10-09T05:59:29;96302.30;;;12.83;54.34
79203;BME280;68630;42.748;23.278;2023-10-09T06:02:24;96299.59;;;13.06;53.43
79203;BME280;68630;42.748;23.278;2023-10-09T06:04:45;96305.18;;;13.41;52.28
79203;BME280;68630;42.748;23.278;2023-10-09T06:07:18;96317.41;;;13.17;52.34
79203;BME280;68630;42.748;23.278;2023-10-09T06:09:47;96319.14;;;13.44;51.07
79203;BME280;68630;42.748;23.278;2023-10-09T06:12:29;96327.37;;;13.53;49.67
79203;BME280;68630;42.748;23.278;2023-10-09T06:20:14;96320.96;;;17.50;40.11
79203;BME280;68630;42.748;23.278;2023-10-09T06:28:05;96335.42;;;19.69;35.13
79203;BME280;68630;42.748;23.278;2023-10-09T06:30:35;96337.72;;;20.71;33.44
79203;BME280;68630;42.748;23.278;2023-10-09T06:33:05;96341.16;;;21.31;32.14
79203;BME280;68630;42.748;23.278;2023-10-09T07:09:31;96326.87;;;23.13;27.52
79203;BME280;68630;42.748;23.278;2023-10-09T07:17:35;96330.62;;;22.14;27.75
79203;BME280;68630;42.748;23.278;2023-10-09T07:22:46;96339.17;;;21.84;28.05
79203;BME280;68630;42.748;23.278;2023-10-09T07:25:19;96344.44;;;23.94;25.18
79203;BME280;68630;42.748;23.278;2023-10-09T07:27:45;96343.27;;;24.31;24.51
79203;BME280;68630;42.748;23.278;2023-10-09T07:32:54;96337.80;;;24.25;24.24
79203;BME280;68630;42.748;23.278;2023-10-09T07:48:52;96337.27;;;25.41;22.12
79203;BME280;68630;42.748;23.278;2023-10-09T07:51:22;96343.08;;;24.72;22.91
79203;BME280;68630;42.748;23.278;2023-10-09T07:56:27;96344.14;;;24.10;22.33
79203;BME280;68630;42.748;23.278;2023-10-09T08:01:53;96335.58;;;22.78;23.80
79203;BME280;68630;42.748;23.278;2023-10-09T08:04:39;96311.09;;;24.35;22.61
79203;BME280;68630;42.748;23.278;2023-10-09T08:07:24;96339.94;;;24.19;22.31
79203;BME280;68630;42.748;23.278;2023-10-09T08:15:27;96344.44;;;24.55;21.44
79203;BME280;68630;42.748;23.278;2023-10-09T08:18:05;96342.29;;;24.61;21.80
79203;BME280;68630;42.748;23.278;2023-10-09T08:20:40;96342.59;;;25.32;20.91
79203;BME280;68630;42.748;23.278;2023-10-09T08:23:26;96341.82;;;24.46;21.35
79203;BME280;68630;42.748;23.278;2023-10-09T08:28:40;96334.77;;;25.84;20.35
79203;BME280;68630;42.748;23.278;2023-10-09T08:31:17;96325.02;;;25.85;20.69
79203;BME280;68630;42.748;23.278;2023-10-09T08:34:06;96318.36;;;27.04;19.05
79203;BME280;68630;42.748;23.278;2023-10-09T08:36:38;96319.27;;;25.22;21.27
79203;BME280;68630;42.748;23.278;2023-10-09T08:39:07;96312.08;;;27.26;19.15
79203;BME280;68630;42.748;23.278;2023-10-09T08:41:37;96307.98;;;27.78;19.02
79203;BME280;68630;42.748;23.278;2023-10-09T08:44:11;96299.91;;;26.99;19.36
79203;BME280;68630;42.748;23.278;2023-10-09T08:46:36;96294.48;;;25.86;20.74
79203;BME280;68630;42.748;23.278;2023-10-09T08:49:09;96293.88;;;26.57;20.32
79203;BME280;68630;42.748;23.278;2023-10-09T08:51:38;96289.39;;;27.25;19.66
79203;BME280;68630;42.748;23.278;2023-10-09T08:54:10;96291.00;;;29.23;17.73
79203;BME280;68630;42.748;23.278;2023-10-09T08:56:40;96293.03;;;27.90;18.82
79203;BME280;68630;42.748;23.278;2023-10-09T08:59:09;96296.03;;;28.04;18.31
79203;BME280;68630;42.748;23.278;2023-10-09T09:01:37;96295.61;;;29.13;17.11
79203;BME280;68630;42.748;23.278;2023-10-09T09:04:10;96275.61;;;25.71;19.36
79203;BME280;68630;42.748;23.278;2023-10-09T09:06:39;96288.77;;;26.18;19.42
79203;BME280;68630;42.748;23.278;2023-10-09T09:09:21;96289.95;;;25.55;20.34
79203;BME280;68630;42.748;23.278;2023-10-09T09:11:45;96294.52;;;27.54;18.13
79203;BME280;68630;42.748;23.278;2023-10-09T09:14:15;96307.57;;;26.30;19.12
79203;BME280;68630;42.748;23.278;2023-10-09T09:16:52;96298.88;;;27.68;17.64
79203;BME280;68630;42.748;23.278;2023-10-09T09:19:18;96294.45;;;27.22;18.07
79203;BME280;68630;42.748;23.278;2023-10-09T09:21:56;96300.18;;;27.07;18.52
79203;BME280;68630;42.748;23.278;2023-10-09T09:24:24;96300.62;;;26.08;19.27
79203;BME280;68630;42.748;23.278;2023-10-09T09:27:05;96291.78;;;25.35;20.19
79203;BME280;68630;42.748;23.278;2023-10-09T09:29:43;96226.91;;;25.48;19.45
79203;BME280;68630;42.748;23.278;2023-10-09T09:32:14;96287.04;;;27.58;17.76
79203;BME280;68630;42.748;23.278;2023-10-09T09:34:48;96274.49;;;28.24;17.39
79203;BME280;68630;42.748;23.278;2023-10-09T09:37:20;96275.42;;;28.27;17.25
79203;BME280;68630;42.748;23.278;2023-10-09T09:39:52;96277.48;;;28.06;17.52
79203;BME280;68630;42.748;23.278;2023-10-09T09:42:25;96279.45;;;26.10;18.24
79203;BME280;68630;42.748;23.278;2023-10-09T09:44:52;96278.08;;;25.96;18.09
79203;BME280;68630;42.748;23.278;2023-10-09T09:47:23;96278.71;;;26.12;18.29
79203;BME280;68630;42.748;23.278;2023-10-09T09:57:45;96262.14;;;24.70;19.46
79203;BME280;68630;42.748;23.278;2023-10-09T10:00:16;96253.55;;;25.52;18.98
79203;BME280;68630;42.748;23.278;2023-10-09T10:05:43;96248.98;;;27.57;16.94
79203;BME280;68630;42.748;23.278;2023-10-09T10:08:24;96246.64;;;27.44;16.88
79203;BME280;68630;42.748;23.278;2023-10-09T10:11:04;96242.50;;;26.27;16.68
79203;BME280;68630;42.748;23.278;2023-10-09T10:16:28;96231.14;;;25.57;18.50
79203;BME280;68630;42.748;23.278;2023-10-09T10:21:29;96220.11;;;25.54;18.75
79203;BME280;68630;42.748;23.278;2023-10-09T10:24:03;96210.88;;;25.11;18.62
79203;BME280;68630;42.748;23.278;2023-10-09T10:26:36;96198.60;;;24.04;19.32
79203;BME280;68630;42.748;23.278;2023-10-09T10:29:16;96199.11;;;21.99;20.54
79203;BME280;68630;42.748;23.278;2023-10-09T10:34:26;96187.58;;;22.16;20.37
79203;BME280;68630;42.748;23.278;2023-10-09T10:40:08;96175.19;;;21.08;22.12
79203;BME280;68630;42.748;23.278;2023-10-09T10:42:57;96153.84;;;21.32;22.27
79203;BME280;68630;42.748;23.278;2023-10-09T10:45:27;96160.45;;;21.53;22.72
79203;BME280;68630;42.748;23.278;2023-10-09T10:48:08;96156.51;;;20.94;23.20
79203;BME280;68630;42.748;23.278;2023-10-09T10:50:38;96153.36;;;21.28;22.06
79203;BME280;68630;42.748;23.278;2023-10-09T10:53:12;96148.89;;;21.17;21.64
79203;BME280;68630;42.748;23.278;2023-10-09T10:55:59;96144.60;;;21.64;22.19
79203;BME280;68630;42.748;23.278;2023-10-09T10:58:27;96158.22;;;21.56;22.28
79203;BME280;68630;42.748;23.278;2023-10-09T11:01:10;96148.17;;;21.61;22.60
79203;BME280;68630;42.748;23.278;2023-10-09T11:03:49;96148.92;;;21.55;22.63
79203;BME280;68630;42.748;23.278;2023-10-09T11:09:13;96136.00;;;21.76;22.28
79203;BME280;68630;42.748;23.278;2023-10-09T11:11:51;96116.75;;;22.15;21.65
79203;BME280;68630;42.748;23.278;2023-10-09T11:14:21;96111.42;;;22.37;20.97
79203;BME280;68630;42.748;23.278;2023-10-09T11:16:52;96180.50;;;22.30;20.81
79203;BME280;68630;42.748;23.278;2023-10-09T11:19:22;96102.23;;;21.82;21.82
79203;BME280;68630;42.748;23.278;2023-10-09T11:22:01;96102.43;;;21.47;22.84
79203;BME280;68630;42.748;23.278;2023-10-09T11:24:37;96104.13;;;21.06;23.00
79203;BME280;68630;42.748;23.278;2023-10-09T11:27:05;96102.61;;;21.64;22.50
79203;BME280;68630;42.748;23.278;2023-10-09T11:29:37;96091.28;;;21.61;22.50
79203;BME280;68630;42.748;23.278;2023-10-09T11:32:25;96099.86;;;21.83;21.64
79203;BME280;68630;42.748;23.278;2023-10-09T11:35:12;96084.22;;;21.56;22.18
79203;BME280;68630;42.748;23.278;2023-10-09T11:37:43;96086.85;;;21.64;21.96
79203;BME280;68630;42.748;23.278;2023-10-09T11:40:30;96076.70;;;21.92;21.96
79203;BME280;68630;42.748;23.278;2023-10-09T11:43:16;96080.23;;;21.66;22.61
79203;BME280;68630;42.748;23.278;2023-10-09T11:45:43;96071.10;;;21.48;21.94
79203;BME280;68630;42.748;23.278;2023-10-09T11:48:25;96064.62;;;21.54;22.43
79203;BME280;68630;42.748;23.278;2023-10-09T11:53:42;96041.96;;;21.17;23.10
79203;BME280;68630;42.748;23.278;2023-10-09T11:56:16;96041.96;;;21.17;23.10
79203;BME280;68630;42.748;23.278;2023-10-09T11:58:43;96042.25;;;21.70;22.49
79203;BME280;68630;42.748;23.278;2023-10-09T12:01:20;96037.58;;;22.05;22.06
79203;BME280;68630;42.748;23.278;2023-10-09T12:03:50;96030.05;;;21.85;21.75
79203;BME280;68630;42.748;23.278;2023-10-09T12:06:21;96027.34;;;21.85;22.29
79203;BME280;68630;42.748;23.278;2023-10-09T12:08:53;96026.59;;;21.47;22.03
79203;BME280;68630;42.748;23.278;2023-10-09T12:11:22;96021.39;;;22.01;21.59
79203;BME280;68630;42.748;23.278;2023-10-09T12:13:54;96017.25;;;21.79;22.00
79203;BME280;68630;42.748;23.278;2023-10-09T12:16:24;96012.00;;;21.33;22.43
79203;BME280;68630;42.748;23.278;2023-10-09T12:21:43;96000.89;;;21.43;22.45
79203;BME280;68630;42.748;23.278;2023-10-09T12:24:04;95996.89;;;21.39;22.57
79203;BME280;68630;42.748;23.278;2023-10-09T12:26:35;95998.63;;;21.65;22.01
79203;BME280;68630;42.748;23.278;2023-10-09T12:29:04;96003.15;;;21.69;22.37
79203;BME280;68630;42.748;23.278;2023-10-09T12:31:34;95996.34;;;21.73;22.23
79203;BME280;68630;42.748;23.278;2023-10-09T12:34:01;95991.20;;;21.78;22.15
79203;BME280;68630;42.748;23.278;2023-10-09T12:36:29;95991.84;;;22.06;21.95
79203;BME280;68630;42.748;23.278;2023-10-09T12:38:58;95983.80;;;21.87;21.94
79203;BME280;68630;42.748;23.278;2023-10-09T12:41:27;95976.98;;;21.76;22.64
79203;BME280;68630;42.748;23.278;2023-10-09T12:43:57;95981.53;;;21.80;22.14
79203;BME280;68630;42.748;23.278;2023-10-09T12:46:25;95971.41;;;21.63;22.09
79203;BME280;68630;42.748;23.278;2023-10-09T12:48:54;95968.30;;;21.66;21.92
79203;BME280;68630;42.748;23.278;2023-10-09T12:51:23;95969.02;;;21.64;21.72
79203;BME280;68630;42.748;23.278;2023-10-09T12:53:53;95959.44;;;21.27;21.98
79203;BME280;68630;42.748;23.278;2023-10-09T12:56:25;95964.30;;;21.32;21.86
79203;BME280;68630;42.748;23.278;2023-10-09T12:58:59;95954.48;;;21.61;21.55
79203;BME280;68630;42.748;23.278;2023-10-09T13:01:28;95951.50;;;21.41;21.51
79203;BME280;68630;42.748;23.278;2023-10-09T13:03:59;95951.31;;;21.57;21.27
79203;BME280;68630;42.748;23.278;2023-10-09T13:06:27;95951.05;;;21.37;20.03
79203;BME280;68630;42.748;23.278;2023-10-09T13:09:01;95946.40;;;21.42;20.40
79203;BME280;68630;42.748;23.278;2023-10-09T13:11:28;95940.84;;;21.69;19.85
79203;BME280;68630;42.748;23.278;2023-10-09T13:14:01;95933.97;;;21.51;20.54
79203;BME280;68630;42.748;23.278;2023-10-09T13:16:27;95937.48;;;21.67;20.28
79203;BME280;68630;42.748;23.278;2023-10-09T13:18:56;95931.81;;;21.47;20.59
79203;BME280;68630;42.748;23.278;2023-10-09T13:21:29;95931.81;;;21.47;20.59
79203;BME280;68630;42.748;23.278;2023-10-09T13:24:00;95929.36;;;21.67;20.69
79203;BME280;68630;42.748;23.278;2023-10-09T13:26:29;95915.64;;;21.79;20.71
79203;BME280;68630;42.748;23.278;2023-10-09T13:29:08;95912.73;;;21.70;21.19
79203;BME280;68630;42.748;23.278;2023-10-09T13:31:28;95918.42;;;21.86;21.15
79203;BME280;68630;42.748;23.278;2023-10-09T13:34:04;95909.11;;;21.63;21.24
79203;BME280;68630;42.748;23.278;2023-10-09T13:36:30;95908.84;;;21.58;21.39
79203;BME280;68630;42.748;23.278;2023-10-09T13:39:05;95908.84;;;21.58;21.39
79203;BME280;68630;42.748;23.278;2023-10-09T13:41:55;95907.69;;;21.67;21.65
79203;BME280;68630;42.748;23.278;2023-10-09T13:44:31;95906.30;;;21.82;21.48
79203;BME280;68630;42.748;23.278;2023-10-09T13:47:01;95891.63;;;21.76;21.97
79203;BME280;68630;42.748;23.278;2023-10-09T13:49:40;95913.30;;;21.76;21.97
79203;BME280;68630;42.748;23.278;2023-10-09T13:52:06;95889.81;;;21.62;21.79
79203;BME280;68630;42.748;23.278;2023-10-09T13:54:40;95885.55;;;21.53;22.09
79203;BME280;68630;42.748;23.278;2023-10-09T13:57:07;95882.50;;;21.51;21.99
79203;BME280;68630;42.748;23.278;2023-10-09T13:59:37;95877.23;;;21.54;21.77
79203;BME280;68630;42.748;23.278;2023-10-09T14:02:17;95879.61;;;21.53;22.16
79203;BME280;68630;42.748;23.278;2023-10-09T14:04:49;95879.61;;;21.53;22.16
79203;BME280;68630;42.748;23.278;2023-10-09T14:07:19;95875.63;;;21.60;21.86
79203;BME280;68630;42.748;23.278;2023-10-09T14:09:52;95875.63;;;21.60;21.86
79203;BME280;68630;42.748;23.278;2023-10-09T14:12:26;95870.13;;;21.53;21.99
79203;BME280;68630;42.748;23.278;2023-10-09T14:14:55;95876.52;;;21.41;22.20
79203;BME280;68630;42.748;23.278;2023-10-09T14:17:26;95881.91;;;21.16;22.39
79203;BME280;68630;42.748;23.278;2023-10-09T14:19:55;95882.07;;;21.03;22.55
79203;BME280;68630;42.748;23.278;2023-10-09T14:22:25;95874.09;;;20.91;23.01
79203;BME280;68630;42.748;23.278;2023-10-09T14:24:55;95872.03;;;20.78;23.47
79203;BME280;68630;42.748;23.278;2023-10-09T14:27:26;95865.84;;;20.73;23.37
79203;BME280;68630;42.748;23.278;2023-10-09T14:29:56;95867.22;;;20.69;22.60
79203;BME280;68630;42.748;23.278;2023-10-09T14:32:26;95869.86;;;20.39;22.96
79203;BME280;68630;42.748;23.278;2023-10-09T14:34:58;95871.45;;;20.30;23.20
79203;BME280;68630;42.748;23.278;2023-10-09T14:37:27;95873.58;;;20.38;23.28
79203;BME280;68630;42.748;23.278;2023-10-09T14:39:58;95868.76;;;20.30;23.50
79203;BME280;68630;42.748;23.278;2023-10-09T14:42:32;95863.98;;;20.36;23.48
79203;BME280;68630;42.748;23.278;2023-10-09T14:45:02;95859.53;;;20.39;23.51
79203;BME280;68630;42.748;23.278;2023-10-09T14:47:31;95854.98;;;20.39;23.26
79203;BME280;68630;42.748;23.278;2023-10-09T14:49:59;95841.27;;;20.60;22.86
79203;BME280;68630;42.748;23.278;2023-10-09T14:52:28;95839.57;;;20.59;23.02
79203;BME280;68630;42.748;23.278;2023-10-09T14:54:55;95839.89;;;20.64;23.17
79203;BME280;68630;42.748;23.278;2023-10-09T14:57:25;95839.06;;;20.64;23.37
79203;BME280;68630;42.748;23.278;2023-10-09T14:59:53;95844.78;;;20.65;23.78
79203;BME280;68630;42.748;23.278;2023-10-09T15:02:20;95838.58;;;20.56;23.82
79203;BME280;68630;42.748;23.278;2023-10-09T15:04:50;95850.08;;;20.39;23.91
79203;BME280;68630;42.748;23.278;2023-10-09T15:07:19;95857.18;;;20.21;23.94
79203;BME280;68630;42.748;23.278;2023-10-09T15:09:47;95852.77;;;20.24;24.11
79203;BME280;68630;42.748;23.278;2023-10-09T15:12:20;95850.38;;;20.25;24.67
79203;BME280;68630;42.748;23.278;2023-10-09T15:14:54;95841.95;;;20.24;24.89
79203;BME280;68630;42.748;23.278;2023-10-09T15:17:25;95835.80;;;19.92;25.70
79203;BME280;68630;42.748;23.278;2023-10-09T15:19:51;95828.21;;;19.92;25.95
79203;BME280;68630;42.748;23.278;2023-10-09T15:22:20;95842.67;;;19.99;25.80
79203;BME280;68630;42.748;23.278;2023-10-09T15:24:59;95843.02;;;20.00;26.11
79203;BME280;68630;42.748;23.278;2023-10-09T15:27:21;95840.63;;;20.01;26.11
79203;BME280;68630;42.748;23.278;2023-10-09T15:29:54;95844.84;;;19.99;26.02
79203;BME280;68630;42.748;23.278;2023-10-09T15:35:21;95841.75;;;19.60;26.64
79203;BME280;68630;42.748;23.278;2023-10-09T15:37:49;95845.30;;;19.57;27.08
79203;BME280;68630;42.748;23.278;2023-10-09T15:40:19;95841.50;;;19.47;26.77
79203;BME280;68630;42.748;23.278;2023-10-09T15:43:00;95839.81;;;19.11;27.72
79203;BME280;68630;42.748;23.278;2023-10-09T15:45:24;95839.33;;;19.11;27.75
79203;BME280;68630;42.748;23.278;2023-10-09T15:47:58;95837.80;;;19.08;27.75
79203;BME280;68630;42.748;23.278;2023-10-09T15:58:10;95827.15;;;18.71;28.72
79203;BME280;68630;42.748;23.278;2023-10-09T16:03:15;95830.23;;;18.56;28.79
79203;BME280;68630;42.748;23.278;2023-10-09T16:05:43;95832.64;;;18.30;29.40
79203;BME280;68630;42.748;23.278;2023-10-09T16:08:10;95835.34;;;18.14;29.64
79203;BME280;68630;42.748;23.278;2023-10-09T16:10:46;95843.62;;;17.96;29.97